Aviation Digital Data Service (ADDS)

Output produced by METARs form (0208 UTC 22 April 2019)
found at http://www.aviationweather.gov/metar/data/
 
Forecast for: ESSA (STOCKHOLM/ARLAND, SE)
Text: TAF ESSA 212330Z 2200/2224 20008KT CAVOK
Forecast period: 0000 UTC 22 April 2019 to 0000 UTC 23 April 2019
Forecast type: FROM: standard forecast or significant change
Winds: from the SSW (200 degrees) at 9 MPH (8 knots; 4.1 m/s)
Visibility: 6 or more miles 10+ km)
Ceiling: unknown
Clouds: missing
Weather: NSW  (no significant weather)